createdAt,value
2019-01-30T00:00:19.136Z,73.65
2019-01-30T00:05:21.153Z,74.23
2019-01-30T00:10:23.202Z,73.28
2019-01-30T00:15:29.355Z,73.68
2019-01-30T00:20:31.401Z,73.69
2019-01-30T00:25:36.983Z,74.53
2019-01-30T00:30:38.968Z,73.59
2019-01-30T00:35:41.053Z,74.31
2019-01-30T00:40:43.150Z,74.14
2019-01-30T00:45:45.159Z,74.65
2019-01-30T00:50:48.942Z,75.37
2019-01-30T00:55:51.111Z,75.14
2019-01-30T01:00:53.122Z,75.73
2019-01-30T01:06:00.303Z,75.06
2019-01-30T01:11:02.315Z,75.57
2019-01-30T01:16:04.636Z,74.20
2019-01-30T01:21:06.705Z,74.75
2019-01-30T01:26:09.989Z,75.13
2019-01-30T01:31:12.019Z,75.74
2019-01-30T01:36:15.851Z,74.80
2019-01-30T01:41:17.859Z,75.07
2019-01-30T01:46:21.067Z,74.79
2019-01-30T01:51:23.349Z,75.94
2019-01-30T01:56:33.007Z,75.77
2019-01-30T02:01:36.961Z,75.27
2019-01-30T02:06:39.118Z,74.23
2019-01-30T02:11:41.428Z,76.53
2019-01-30T02:16:43.712Z,74.57
2019-01-30T02:21:45.718Z,74.37
2019-01-30T02:26:52.838Z,75.27
2019-01-30T02:31:54.861Z,75.00
2019-01-30T02:36:57.181Z,74.73
2019-01-30T02:41:59.437Z,75.23
2019-01-30T02:47:04.533Z,74.62
2019-01-30T02:52:06.725Z,75.80
2019-01-30T02:57:08.756Z,74.99
2019-01-30T03:02:23.145Z,75.16
2019-01-30T03:07:25.167Z,74.85
2019-01-30T03:12:29.933Z,75.05
2019-01-30T03:17:31.983Z,75.00
2019-01-30T03:22:34.059Z,74.89
2019-01-30T03:27:37.341Z,74.40
2019-01-30T03:32:39.377Z,74.39
2019-01-30T03:37:44.373Z,75.14
2019-01-30T03:42:46.616Z,74.34
2019-01-30T03:47:48.630Z,74.32
2019-01-30T03:52:53.485Z,74.58
2019-01-30T03:58:01.322Z,74.26
2019-01-30T04:03:03.411Z,73.63
2019-01-30T04:08:05.398Z,74.84
2019-01-30T04:13:07.781Z,73.96
2019-01-30T04:18:09.829Z,74.47
2019-01-30T04:23:11.977Z,74.82
2019-01-30T04:28:13.984Z,74.67
2019-01-30T04:33:16.106Z,74.22
2019-01-30T04:38:20.304Z,74.82
2019-01-30T04:43:22.612Z,73.58
2019-01-30T04:48:24.537Z,74.80
2019-01-30T04:53:26.546Z,74.74
2019-01-30T04:58:28.570Z,74.51
2019-01-30T05:03:32.883Z,74.18
2019-01-30T05:08:34.886Z,74.63
2019-01-30T05:13:36.978Z,74.50
2019-01-30T05:18:39.026Z,74.37
2019-01-30T05:23:41.037Z,74.65
2019-01-30T05:28:48.054Z,74.27
2019-01-30T05:33:50.124Z,74.85
2019-01-30T05:38:52.180Z,74.65
2019-01-30T05:43:56.909Z,74.50
2019-01-30T05:49:04.322Z,73.82
2019-01-30T05:54:06.638Z,74.24
2019-01-30T05:59:08.646Z,73.43
2019-01-30T06:04:13.707Z,73.35
2019-01-30T06:09:15.748Z,73.81
2019-01-30T06:14:17.979Z,74.38
2019-01-30T06:19:21.150Z,73.98
2019-01-30T06:24:25.234Z,74.26
2019-01-30T06:29:27.199Z,73.96
2019-01-30T06:34:30.417Z,74.09
2019-01-30T06:39:39.636Z,73.72
2019-01-30T06:44:41.805Z,74.73
2019-01-30T06:49:43.854Z,74.21
2019-01-30T06:54:45.884Z,73.30
2019-01-30T06:59:49.017Z,74.40
2019-01-30T07:04:51.288Z,74.42
2019-01-30T07:09:53.641Z,73.44
2019-01-30T07:14:55.836Z,73.81
2019-01-30T07:19:57.936Z,74.04
2019-01-30T07:25:00.068Z,74.89
2019-01-30T07:30:02.336Z,74.62
2019-01-30T07:35:09.643Z,74.43
2019-01-30T07:40:11.729Z,73.93
2019-01-30T07:45:15.925Z,74.42
2019-01-30T07:50:18.153Z,75.06
2019-01-30T07:55:22.736Z,73.95
2019-01-30T08:00:29.464Z,74.66
2019-01-30T08:05:31.703Z,74.27
2019-01-30T08:10:33.794Z,74.62
2019-01-30T08:15:35.888Z,74.03
2019-01-30T08:20:37.941Z,74.01
2019-01-30T08:25:42.679Z,73.41
2019-01-30T08:30:45.199Z,75.16
2019-01-30T08:35:47.272Z,73.13
2019-01-30T08:40:49.453Z,72.86
2019-01-30T08:45:51.779Z,73.97
2019-01-30T08:50:53.826Z,73.96
2019-01-30T08:55:56.026Z,72.58
2019-01-30T09:01:01.111Z,72.00
2019-01-30T09:06:03.211Z,72.09
2019-01-30T09:11:05.195Z,70.90
2019-01-30T09:16:07.335Z,70.80
2019-01-30T09:21:09.508Z,69.14
2019-01-30T09:26:11.599Z,71.10
2019-01-30T09:31:13.600Z,70.49
2019-01-30T09:36:15.618Z,69.50
2019-01-30T09:41:17.660Z,68.63
2019-01-30T09:46:19.681Z,66.49
2019-01-30T09:51:21.706Z,67.33
2019-01-30T09:56:25.561Z,67.17
2019-01-30T10:01:27.580Z,67.92
2019-01-30T10:06:29.620Z,66.04
2019-01-30T10:11:34.492Z,68.14
2019-01-30T10:16:36.637Z,66.21
2019-01-30T10:21:38.635Z,67.10
2019-01-30T10:26:41.280Z,66.48
2019-01-30T10:31:43.300Z,65.74
2019-01-30T10:36:45.297Z,65.20
2019-01-30T10:41:47.396Z,65.02
2019-01-30T10:46:52.030Z,66.61
2019-01-30T10:51:54.023Z,65.96
2019-01-30T10:56:56.079Z,66.55
2019-01-30T11:01:58.086Z,65.30
2019-01-30T11:07:00.101Z,64.88
2019-01-30T11:12:04.595Z,65.13
2019-01-30T11:17:09.644Z,64.93
2019-01-30T11:22:11.650Z,64.99
2019-01-30T11:27:13.881Z,66.38
2019-01-30T11:32:17.787Z,66.26
2019-01-30T11:37:20.530Z,64.62
2019-01-30T11:42:22.564Z,64.36
2019-01-30T11:47:24.583Z,66.90
2019-01-30T11:52:26.597Z,65.07
2019-01-30T11:57:28.589Z,65.66
2019-01-30T12:02:31.997Z,64.85
2019-01-30T12:07:34.109Z,66.44
2019-01-30T12:12:36.107Z,67.47
2019-01-30T12:17:38.161Z,66.13
2019-01-30T12:22:43.315Z,64.76
2019-01-30T12:27:45.381Z,66.29
2019-01-30T12:32:47.627Z,66.46
2019-01-30T12:37:49.638Z,64.36
2019-01-30T12:42:53.154Z,66.09
2019-01-30T12:47:55.252Z,65.47
2019-01-30T12:52:57.255Z,65.21
2019-01-30T12:57:59.257Z,64.85
2019-01-30T13:03:01.265Z,66.44
2019-01-30T13:08:03.256Z,66.18
2019-01-30T13:13:05.326Z,64.93
2019-01-30T13:18:18.021Z,64.06
2019-01-30T13:23:13.311Z,66.40
2019-01-30T13:28:15.347Z,65.21
2019-01-30T13:33:17.842Z,65.92
2019-01-30T13:38:22.394Z,66.64
2019-01-30T13:43:24.611Z,67.36
2019-01-30T13:48:26.669Z,66.32
2019-01-30T13:53:31.024Z,67.07
2019-01-30T13:58:34.830Z,67.36
2019-01-30T14:03:36.838Z,68.60
2019-01-30T14:08:38.835Z,67.33
2019-01-30T14:13:41.079Z,69.47
2019-01-30T14:18:47.123Z,70.25
2019-01-30T14:23:49.408Z,69.94
2019-01-30T14:28:55.499Z,70.23
2019-01-30T14:33:57.703Z,70.02
2019-01-30T14:39:00.082Z,70.23
2019-01-30T14:44:02.126Z,72.26
2019-01-30T14:49:04.151Z,71.63
2019-01-30T14:54:10.416Z,73.13
2019-01-30T14:59:17.928Z,73.47
2019-01-30T15:04:19.961Z,74.13
2019-01-30T15:09:21.932Z,76.45
2019-01-30T15:14:24.199Z,76.48
2019-01-30T15:19:29.079Z,76.47
2019-01-30T15:24:31.185Z,77.34
2019-01-30T15:29:33.238Z,77.71
2019-01-30T15:34:35.535Z,77.47
2019-01-30T15:39:40.764Z,79.05
2019-01-30T15:44:42.788Z,80.32
2019-01-30T15:49:44.793Z,80.51
2019-01-30T15:54:47.121Z,80.65
2019-01-30T15:59:49.147Z,81.19
2019-01-30T16:04:51.411Z,81.89
2019-01-30T16:09:55.977Z,82.22
2019-01-30T16:14:58.148Z,83.52
2019-01-30T16:20:00.199Z,83.70
2019-01-30T16:25:09.177Z,83.92
2019-01-30T16:30:10.331Z,84.01
2019-01-30T16:35:14.325Z,85.12
2019-01-30T16:40:16.362Z,84.95
2019-01-30T16:45:19.933Z,85.96
2019-01-30T16:50:21.935Z,85.86
2019-01-30T16:55:23.981Z,86.23
2019-01-30T17:00:28.234Z,85.67
2019-01-30T17:05:31.054Z,85.57
2019-01-30T17:10:33.110Z,85.12
2019-01-30T17:15:35.821Z,86.06
2019-01-30T17:20:38.229Z,86.36
2019-01-30T17:25:42.267Z,86.44
2019-01-30T17:30:53.853Z,86.07
2019-01-30T17:35:55.918Z,85.96
2019-01-30T17:40:57.962Z,85.89
2019-01-30T17:45:59.978Z,85.87
2019-01-30T17:51:02.006Z,85.50
2019-01-30T17:56:04.161Z,85.78
2019-01-30T18:01:08.163Z,85.65
2019-01-30T18:06:12.985Z,85.67
2019-01-30T18:11:15.109Z,85.75
2019-01-30T18:16:18.567Z,85.94
2019-01-30T18:21:23.717Z,85.76
2019-01-30T18:26:25.989Z,85.92
2019-01-30T18:31:28.051Z,85.72
2019-01-30T18:36:40.404Z,85.15
2019-01-30T18:41:35.330Z,85.35
2019-01-30T18:46:37.486Z,84.84
2019-01-30T18:51:46.309Z,85.11
2019-01-30T18:56:48.549Z,85.44
2019-01-30T19:01:50.559Z,85.37
2019-01-30T19:06:52.876Z,85.57
2019-01-30T19:11:54.901Z,85.84
2019-01-30T19:17:01.371Z,85.51
2019-01-30T19:22:04.367Z,85.21
2019-01-30T19:27:06.650Z,85.12
2019-01-30T19:32:08.658Z,85.79
2019-01-30T19:37:12.619Z,86.00
2019-01-30T19:42:14.915Z,85.72
2019-01-30T19:47:17.141Z,86.13
2019-01-30T19:52:19.171Z,86.04
2019-01-30T19:57:21.402Z,85.45
2019-01-30T20:02:23.547Z,85.88
2019-01-30T20:07:25.673Z,85.24
2019-01-30T20:12:30.286Z,84.73
2019-01-30T20:17:33.487Z,85.73
2019-01-30T20:22:35.577Z,85.92
2019-01-30T20:27:37.600Z,86.37
2019-01-30T20:32:40.841Z,86.45
2019-01-30T20:37:42.865Z,86.58
2019-01-30T20:42:52.754Z,86.33
2019-01-30T20:47:53.911Z,86.58
2019-01-30T20:52:56.184Z,86.72
2019-01-30T20:57:58.204Z,85.95
2019-01-30T21:03:00.454Z,86.11
2019-01-30T21:08:02.608Z,86.08
2019-01-30T21:13:05.317Z,85.88
2019-01-30T21:18:07.310Z,86.06
2019-01-30T21:23:15.168Z,85.81
2019-01-30T21:28:17.207Z,86.34
2019-01-30T21:33:19.421Z,86.43
2019-01-30T21:38:21.452Z,86.29
2019-01-30T21:43:24.556Z,86.22
2019-01-30T21:48:28.538Z,85.91
2019-01-30T21:53:32.015Z,86.00
2019-01-30T21:58:34.091Z,86.05
2019-01-30T22:03:39.199Z,85.57
2019-01-30T22:08:41.339Z,85.85
2019-01-30T22:13:43.541Z,86.18
2019-01-30T22:18:48.171Z,85.90
2019-01-30T22:23:50.286Z,86.07
2019-01-30T22:28:54.298Z,86.29
2019-01-30T22:33:56.416Z,85.93
2019-01-30T22:38:58.882Z,85.92
2019-01-30T22:44:00.940Z,85.62
2019-01-30T22:49:03.177Z,85.23
2019-01-30T22:54:05.230Z,85.91
2019-01-30T22:59:07.592Z,86.00
2019-01-30T23:05:06.633Z,86.64
2019-01-30T23:11:05.597Z,87.26
2019-01-30T23:16:46.312Z,87.95
2019-01-30T23:22:15.803Z,88.03
2019-01-30T23:27:34.328Z,87.53
2019-01-30T23:33:13.048Z,87.26
2019-01-30T23:39:01.637Z,87.17
2019-01-30T23:44:37.627Z,87.21
2019-01-30T23:50:20.191Z,86.98
2019-01-30T23:55:54.130Z,86.96
